Time;durP1;ratioP1;P1;durP2;ratioP2;P2;SDS_P1;SDS_P2;PMS_P1;PMS_P2;Temp;Humidity;BMP_temperature;BMP_pressure;BME280_temperature;BME280_humidity;BME280_pressure;Samples;Min_cycle;Max_cycle;Signal;HPM_P1;HPM_P2
2022/04/19 00:00:42;;;;;;;;;13.25;11.50;;;;;14.70;54.73;101290.25;5003198;28;45606;-51
2022/04/19 00:03:08;;;;;;;;;14.00;13.00;;;;;14.69;54.60;101291.22;5003161;28;45551;-52
2022/04/19 00:05:35;;;;;;;;;10.50;10.50;;;;;14.69;54.91;101291.22;5002940;28;45350;-52
2022/04/19 00:08:05;;;;;;;;;7.00;6.25;;;;;14.67;54.75;101282.50;5002618;28;45179;-51
2022/04/19 00:10:31;;;;;;;;;13.75;10.25;;;;;14.69;54.83;101280.59;5003072;28;45380;-51
2022/04/19 00:12:59;;;;;;;;;10.00;8.00;;;;;14.69;54.58;101275.31;5003181;28;45341;-51
2022/04/19 00:15:27;;;;;;;;;11.25;10.00;;;;;14.71;55.05;101280.50;5002996;28;46078;-53
2022/04/19 00:17:54;;;;;;;;;14.25;12.25;;;;;14.68;54.62;101275.38;5002553;28;45385;-53
2022/04/19 00:20:21;;;;;;;;;14.50;11.75;;;;;14.68;54.70;101278.03;5003287;28;45397;-55
2022/04/19 00:22:50;;;;;;;;;13.50;9.50;;;;;14.68;54.86;101270.06;5002668;28;45645;-56
2022/04/19 00:25:17;;;;;;;;;11.50;9.25;;;;;14.68;54.66;101270.91;4985726;28;45402;-55
2022/04/19 00:27:43;;;;;;;;;9.50;9.50;;;;;14.68;54.48;101272.72;5002688;28;45239;-55
2022/04/19 00:30:10;;;;;;;;;14.50;10.50;;;;;14.64;53.99;101273.91;5003003;28;45258;-57
2022/04/19 00:32:36;;;;;;;;;7.00;7.00;;;;;14.60;54.41;101267.94;5002765;28;45314;-57
2022/04/19 00:35:03;;;;;;;;;12.50;9.00;;;;;14.60;54.19;101269.75;5003033;28;45535;-55
2022/04/19 00:37:29;;;;;;;;;12.75;9.50;;;;;14.57;54.37;101278.75;5002511;28;45409;-55
2022/04/19 00:39:57;;;;;;;;;13.75;8.75;;;;;14.52;54.44;101278.22;5002772;28;45400;-52
2022/04/19 00:42:27;;;;;;;;;10.00;8.00;;;;;14.47;54.33;101272.38;5002716;28;45199;-53
2022/04/19 00:44:54;;;;;;;;;10.75;9.00;;;;;14.43;54.62;101271.69;5002470;28;46104;-54
2022/04/19 00:47:19;;;;;;;;;11.75;8.50;;;;;14.39;54.66;101277.31;4985014;28;45274;-52
2022/04/19 00:49:47;;;;;;;;;10.75;9.00;;;;;14.35;54.57;101271.34;5002399;28;45470;-55
2022/04/19 00:52:13;;;;;;;;;10.50;9.75;;;;;14.30;54.67;101270.84;5001603;28;45490;-53
2022/04/19 00:54:40;;;;;;;;;7.50;7.00;;;;;14.25;54.64;101265.81;5002222;28;46108;-50
2022/04/19 00:57:06;;;;;;;;;12.25;9.00;;;;;14.23;54.96;101262.44;5002247;28;45409;-51
2022/04/19 00:59:33;;;;;;;;;7.00;7.00;;;;;14.21;54.91;101264.31;5002472;28;45373;-51
2022/04/19 01:01:59;;;;;;;;;9.75;6.75;;;;;14.23;54.72;101258.94;5002207;28;45397;-48
2022/04/19 01:04:24;;;;;;;;;10.75;8.25;;;;;14.22;54.73;101260.75;5002275;28;45164;-48
2022/04/19 01:06:50;;;;;;;;;13.00;6.25;;;;;14.18;54.47;101253.94;5001425;28;45287;-49
2022/04/19 01:09:16;;;;;;;;;9.00;7.00;;;;;14.11;54.44;101254.44;5002697;28;45454;-51
2022/04/19 01:14:28;;;;;;;;;7.50;5.00;;;;;13.93;53.84;101260.00;5002009;28;45234;-50
2022/04/19 01:16:55;;;;;;;;;8.75;6.75;;;;;13.89;53.68;101265.56;5002056;28;45255;-51
2022/04/19 01:19:21;;;;;;;;;6.00;5.00;;;;;13.84;53.81;101257.94;5002310;28;45328;-51
2022/04/19 01:21:48;;;;;;;;;6.00;6.00;;;;;13.80;53.68;101266.19;5002001;28;45413;-51
2022/04/19 01:24:18;;;;;;;;;9.75;7.00;;;;;13.79;53.83;101260.03;5001949;28;45424;-52
2022/04/19 01:26:45;;;;;;;;;8.00;6.25;;;;;13.80;53.80;101255.59;5002302;28;45268;-53
2022/04/19 01:29:11;;;;;;;;;7.25;6.00;;;;;13.77;53.51;101256.63;5002116;28;45464;-55
2022/04/19 01:31:38;;;;;;;;;6.00;6.00;;;;;13.73;53.43;101259.56;5001821;28;45401;-51
2022/04/19 01:34:04;;;;;;;;;10.25;6.00;;;;;13.69;52.89;101248.34;5001933;28;46028;-54
2022/04/19 01:36:33;;;;;;;;;5.00;5.00;;;;;13.64;53.03;101247.78;5002017;28;45388;-53
2022/04/19 01:38:58;;;;;;;;;4.25;3.75;;;;;13.65;53.20;101247.66;5002152;28;45404;-51
2022/04/19 01:41:25;;;;;;;;;7.00;4.25;;;;;13.68;53.04;101251.94;5001883;28;45528;-52
2022/04/19 01:43:52;;;;;;;;;4.00;3.75;;;;;13.65;52.88;101250.31;5001606;28;46174;-53
2022/04/19 01:46:17;;;;;;;;;5.00;5.00;;;;;13.60;52.75;101246.28;5001775;28;45313;-57
2022/04/19 01:48:43;;;;;;;;;5.25;4.25;;;;;13.57;52.79;101252.59;5001904;28;45285;-53
2022/04/19 01:51:08;;;;;;;;;5.00;4.00;;;;;13.55;52.97;101248.38;4980636;28;45501;-56
2022/04/19 01:53:34;;;;;;;;;5.00;4.00;;;;;13.52;52.69;101246.78;4997749;28;45405;-53
2022/04/19 01:56:00;;;;;;;;;4.00;4.00;;;;;13.50;52.72;101250.44;5001776;28;45302;-51
2022/04/19 01:58:25;;;;;;;;;5.00;5.00;;;;;13.47;52.48;101250.66;5001706;28;45219;-50
2022/04/19 02:00:51;;;;;;;;;7.75;3.00;;;;;13.44;52.62;101246.41;5000910;28;45279;-51
2022/04/19 02:03:18;;;;;;;;;3.00;3.00;;;;;13.40;52.37;101251.03;4983054;28;46793;-54
2022/04/19 02:05:43;;;;;;;;;5.25;5.25;;;;;13.36;52.44;101251.34;5000733;28;45302;-49
2022/04/19 02:08:08;;;;;;;;;6.75;4.50;;;;;13.33;52.44;101246.22;5001060;28;45211;-50
2022/04/19 02:10:34;;;;;;;;;4.00;3.00;;;;;13.29;52.40;101250.88;5001296;28;45152;-54
2022/04/19 02:12:59;;;;;;;;;4.25;3.50;;;;;13.26;52.37;101248.38;5000602;28;45449;-53
2022/04/19 02:15:25;;;;;;;;;5.25;4.00;;;;;13.24;52.40;101246.78;5000933;28;45373;-52
2022/04/19 02:17:50;;;;;;;;;6.00;5.00;;;;;13.20;52.73;101243.50;5000494;28;45549;-53
2022/04/19 02:20:18;;;;;;;;;5.75;4.75;;;;;13.16;52.85;101247.22;5000471;28;46426;-53
2022/04/19 02:22:44;;;;;;;;;5.25;4.25;;;;;13.11;52.84;101242.25;4997952;28;45527;-55
2022/04/19 02:25:12;;;;;;;;;9.00;5.75;;;;;13.10;52.87;101245.81;5000783;28;45450;-54
2022/04/19 02:27:40;;;;;;;;;5.25;5.00;;;;;13.09;52.78;101249.41;5000684;28;45282;-53
2022/04/19 02:30:15;;;;;;;;;12.75;5.50;;;;;13.06;52.12;101251.41;5000791;28;45419;-54
2022/04/19 02:32:43;;;;;;;;;5.75;5.00;;;;;13.02;52.97;101249.88;5000082;28;45424;-52
2022/04/19 02:35:09;;;;;;;;;7.25;5.25;;;;;12.97;52.66;101239.59;4997576;28;45488;-52
2022/04/19 02:37:36;;;;;;;;;10.00;5.25;;;;;12.93;52.44;101234.56;5000388;28;45436;-53
2022/04/19 02:40:01;;;;;;;;;6.50;4.25;;;;;12.92;52.68;101235.53;4999452;28;45974;-53
2022/04/19 02:42:27;;;;;;;;;8.00;5.75;;;;;12.94;52.69;101237.13;4998346;28;45271;-53
2022/04/19 02:44:52;;;;;;;;;6.50;5.00;;;;;12.93;52.45;101237.22;5000357;28;45291;-54
2022/04/19 02:47:18;;;;;;;;;4.00;3.00;;;;;12.91;52.68;101236.47;5000623;28;45163;-55
2022/04/19 02:49:45;;;;;;;;;7.75;4.50;;;;;12.90;52.43;101232.13;5000653;28;45198;-54
2022/04/19 02:52:11;;;;;;;;;3.00;3.00;;;;;12.86;52.27;101237.59;5000314;28;45401;-51
2022/04/19 02:54:37;;;;;;;;;5.00;4.75;;;;;12.80;52.32;101237.13;5000547;28;45401;-52
2022/04/19 02:57:04;;;;;;;;;8.25;5.75;;;;;12.79;52.41;101238.03;5000601;28;45305;-52
2022/04/19 02:59:29;;;;;;;;;3.00;3.00;;;;;12.74;52.22;101230.41;5000489;28;45444;-55
2022/04/19 03:01:55;;;;;;;;;6.00;6.00;;;;;12.73;52.05;101233.16;5000061;28;45330;-52
2022/04/19 03:04:20;;;;;;;;;5.50;5.00;;;;;12.75;52.12;101236.53;5000292;28;45159;-49
2022/04/19 03:06:47;;;;;;;;;7.00;5.00;;;;;12.72;51.96;101232.31;4999935;28;45303;-51
2022/04/19 03:09:13;;;;;;;;;3.50;3.00;;;;;12.69;51.93;101229.84;5000462;28;45643;-51
2022/04/19 03:11:38;;;;;;;;;4.50;3.50;;;;;12.69;52.34;101229.84;4995430;28;46072;-50
2022/04/19 03:14:06;;;;;;;;;4.00;2.25;;;;;12.67;52.30;101225.59;4992750;28;45196;-53
2022/04/19 03:16:32;;;;;;;;;5.00;5.00;;;;;12.64;52.25;101221.34;5000564;28;45444;-48
2022/04/19 03:18:58;;;;;;;;;4.00;2.00;;;;;12.64;52.34;101221.34;5000970;28;45485;-54
2022/04/19 03:21:24;;;;;;;;;4.00;2.00;;;;;12.63;52.31;101222.25;5000395;28;45330;-52
2022/04/19 03:29:17;;;;;;;;;5.25;3.50;;;;;12.64;52.32;101221.34;5000530;28;45432;-53
2022/04/19 03:31:43;;;;;;;;;3.50;2.25;;;;;12.60;52.40;101218.97;4982792;28;45561;-51
2022/04/19 03:34:08;;;;;;;;;5.00;5.00;;;;;12.59;52.60;101223.41;5000819;28;45308;-53
2022/04/19 03:36:35;;;;;;;;;4.75;3.00;;;;;12.55;52.48;101212.16;5004080;28;45218;-53
2022/04/19 03:39:00;;;;;;;;;2.00;2.00;;;;;12.53;52.56;101219.31;5003964;28;45237;-49
2022/04/19 03:41:25;;;;;;;;;5.00;3.00;;;;;12.49;52.83;101209.91;5003935;28;45435;-50
2022/04/19 03:43:52;;;;;;;;;8.25;3.00;;;;;12.46;52.56;101207.41;5003717;28;45162;-52
2022/04/19 03:46:18;;;;;;;;;4.25;3.00;;;;;12.46;52.95;101212.69;5003849;28;45223;-52
2022/04/19 03:48:44;;;;;;;;;17.75;6.25;;;;;12.47;52.95;101208.25;5003779;28;45218;-50
2022/04/19 03:51:10;;;;;;;;;11.00;4.50;;;;;12.44;52.86;101208.47;5003494;28;45346;-50
2022/04/19 03:53:35;;;;;;;;;3.00;3.00;;;;;12.39;53.23;101214.00;5003591;28;45309;-53
2022/04/19 03:56:03;;;;;;;;;3.25;2.00;;;;;12.38;53.13;101208.81;5004030;28;45354;-54
2022/04/19 03:58:29;;;;;;;;;4.25;3.00;;;;;12.37;53.25;101207.97;5003648;28;45362;-53
2022/04/19 04:00:55;;;;;;;;;6.00;5.00;;;;;12.34;53.26;101210.81;4985786;28;45336;-54
2022/04/19 04:03:21;;;;;;;;;5.00;3.50;;;;;12.29;53.31;101208.41;5003448;28;45195;-53
2022/04/19 04:05:47;;;;;;;;;3.00;3.00;;;;;12.28;53.80;101201.44;5003311;28;45362;-54
2022/04/19 04:08:12;;;;;;;;;5.50;3.00;;;;;12.28;53.66;101208.50;5003581;28;45501;-51
2022/04/19 04:10:38;;;;;;;;;9.25;3.00;;;;;12.25;53.60;101204.28;5003441;28;46115;-52
2022/04/19 04:13:04;;;;;;;;;6.50;3.00;;;;;12.20;53.72;101198.41;5003390;28;45262;-53
2022/04/19 04:15:30;;;;;;;;;3.50;3.00;;;;;12.18;53.87;101196.81;5003401;28;45263;-52
2022/04/19 04:17:55;;;;;;;;;10.00;3.00;;;;;12.13;54.09;101194.41;5003250;28;45572;-52
2022/04/19 04:20:21;;;;;;;;;2.00;2.00;;;;;12.13;54.10;101198.84;5003269;28;45387;-53
2022/04/19 04:22:46;;;;;;;;;4.00;2.25;;;;;12.13;54.30;101206.78;5003075;28;45326;-52
2022/04/19 04:25:12;;;;;;;;;5.25;2.50;;;;;12.13;54.26;101196.22;5003388;28;45309;-50
2022/04/19 04:27:37;;;;;;;;;7.00;4.00;;;;;12.18;54.48;101202.09;5003076;28;45405;-53
2022/04/19 04:30:04;;;;;;;;;6.50;4.50;;;;;12.21;54.50;101201.88;5002979;28;45749;-54
2022/04/19 04:32:30;;;;;;;;;4.25;3.75;;;;;12.19;54.60;101198.50;5002912;28;45322;-55
2022/04/19 04:34:55;;;;;;;;;6.75;5.00;;;;;12.15;54.58;101197.81;5003198;28;45377;-52
2022/04/19 04:37:22;;;;;;;;;9.75;5.25;;;;;12.12;54.92;101197.16;5002892;28;45216;-52
2022/04/19 04:39:47;;;;;;;;;9.50;4.50;;;;;12.10;54.78;101205.16;5002903;28;45398;-55
2022/04/19 04:42:13;;;;;;;;;4.25;3.50;;;;;12.08;55.19;101214.09;5002397;28;45219;-49
2022/04/19 04:44:38;;;;;;;;;8.50;5.75;;;;;12.04;55.35;101207.31;5003148;28;45286;-51
2022/04/19 04:49:48;;;;;;;;;6.00;5.00;;;;;12.09;55.36;101218.47;5002832;28;45285;-50
2022/04/19 04:52:15;;;;;;;;;6.00;3.00;;;;;12.10;55.48;101214.88;5002344;28;45323;-52
2022/04/19 04:54:42;;;;;;;;;5.00;3.00;;;;;12.10;55.80;101215.72;5003000;28;45391;-51
2022/04/19 04:57:08;;;;;;;;;6.00;4.25;;;;;12.09;55.63;101215.81;5002879;28;45567;-48
2022/04/19 04:59:35;;;;;;;;;7.25;4.00;;;;;12.08;55.67;101225.50;5002555;28;45304;-52
2022/04/19 05:02:01;;;;;;;;;2.50;2.25;;;;;12.06;55.78;101224.75;5002592;28;45179;-52
2022/04/19 05:04:26;;;;;;;;;9.50;3.75;;;;;12.04;55.96;101231.91;5002591;28;45532;-50
2022/04/19 05:06:52;;;;;;;;;4.00;4.00;;;;;12.01;55.80;101230.31;4999393;28;46018;-53
2022/04/19 05:09:18;;;;;;;;;7.50;4.00;;;;;12.01;56.08;101227.69;5002247;28;45424;-52
2022/04/19 05:11:46;;;;;;;;;5.25;4.00;;;;;11.99;56.01;101226.03;5002127;28;45281;-49
2022/04/19 05:14:15;;;;;;;;;4.50;4.00;;;;;11.98;56.59;101224.34;5002132;28;45440;-50
2022/04/19 05:16:41;;;;;;;;;6.50;5.00;;;;;11.97;56.63;101225.28;5002026;28;45325;-52
2022/04/19 05:19:08;;;;;;;;;17.25;8.00;;;;;11.98;56.40;101227.00;5002350;28;45374;-50
2022/04/19 05:21:33;;;;;;;;;8.50;4.00;;;;;11.96;56.42;101221.81;5002031;28;45246;-50
2022/04/19 05:23:59;;;;;;;;;7.00;5.00;;;;;11.93;56.96;101229.91;5001372;28;45212;-49
2022/04/19 05:26:28;;;;;;;;;4.25;4.25;;;;;11.93;57.00;101239.63;5002360;28;45234;-50
2022/04/19 05:28:54;;;;;;;;;6.50;4.00;;;;;11.94;56.84;101223.69;5002142;28;45478;-52
2022/04/19 05:31:20;;;;;;;;;5.00;4.50;;;;;11.95;56.91;101224.53;5001698;28;45200;-49
2022/04/19 05:33:46;;;;;;;;;10.00;4.50;;;;;11.98;57.25;101235.75;5002379;28;45496;-51
2022/04/19 05:36:12;;;;;;;;;6.00;4.00;;;;;11.97;57.19;101234.06;4984073;28;45584;-52
2022/04/19 05:38:38;;;;;;;;;5.00;4.00;;;;;12.00;57.27;101235.66;5001996;28;46143;-50
2022/04/19 05:41:03;;;;;;;;;11.00;4.50;;;;;12.04;57.20;101226.63;5001824;28;45162;-51
2022/04/19 05:43:29;;;;;;;;;6.50;5.50;;;;;12.06;57.22;101227.41;5002191;28;45243;-53
2022/04/19 05:45:57;;;;;;;;;6.00;4.00;;;;;12.08;57.25;101232.59;5001780;28;45428;-59
2022/04/19 05:48:26;;;;;;;;;10.75;7.00;;;;;12.13;57.52;101226.09;5001887;28;45418;-56
2022/04/19 05:50:52;;;;;;;;;5.00;4.00;;;;;12.19;57.22;101232.84;5001859;28;45292;-52
2022/04/19 05:53:19;;;;;;;;;5.25;4.00;;;;;12.24;57.22;101230.75;5000519;28;45246;-51
2022/04/19 05:55:44;;;;;;;;;5.75;4.50;;;;;12.30;57.37;101233.91;5001755;28;45202;-51
2022/04/19 05:58:10;;;;;;;;;12.50;5.25;;;;;12.35;57.37;101233.63;5001088;28;45961;-51
2022/04/19 06:00:35;;;;;;;;;5.50;4.75;;;;;12.45;57.44;101233.94;5001419;28;45242;-50
2022/04/19 06:05:45;;;;;;;;;2.00;2.00;;;;;12.60;57.28;101232.19;5001584;28;45365;-52
2022/04/19 06:08:11;;;;;;;;;9.50;5.75;;;;;12.69;57.16;101227.19;5001382;28;45593;-51
2022/04/19 06:10:36;;;;;;;;;3.00;1.00;;;;;12.78;57.19;101231.91;4983354;28;45496;-54
2022/04/19 06:13:02;;;;;;;;;7.00;5.50;;;;;12.84;56.91;101231.53;5001050;28;45395;-53
2022/04/19 06:15:27;;;;;;;;;12.50;5.25;;;;;12.86;57.25;101232.28;5001195;28;45266;-52
2022/04/19 06:17:53;;;;;;;;;6.00;4.00;;;;;12.93;57.23;101235.41;5001147;28;45447;-53
2022/04/19 06:20:18;;;;;;;;;11.25;5.25;;;;;13.04;57.11;101230.34;5001466;28;45321;-53
2022/04/19 06:22:44;;;;;;;;;9.25;5.50;;;;;13.11;56.80;101239.59;5001322;28;45267;-55
2022/04/19 06:25:10;;;;;;;;;6.50;6.00;;;;;13.18;57.03;101242.69;5001590;28;45623;-52
2022/04/19 06:27:36;;;;;;;;;9.25;6.25;;;;;13.18;56.74;101241.84;5001334;28;45631;-53
2022/04/19 06:30:02;;;;;;;;;9.50;6.00;;;;;13.24;56.78;101238.84;5000738;28;45290;-52
2022/04/19 06:32:28;;;;;;;;;9.25;6.00;;;;;13.31;56.78;101242.81;5001097;28;45356;-54
2022/04/19 06:34:53;;;;;;;;;9.00;6.50;;;;;13.31;56.54;101237.53;5001294;28;45287;-50
2022/04/19 06:37:22;;;;;;;;;6.75;6.00;;;;;13.34;56.89;101229.38;5000519;28;45550;-51
2022/04/19 06:39:47;;;;;;;;;11.25;6.75;;;;;13.40;56.72;101236.94;5001039;28;45392;-57
2022/04/19 06:42:13;;;;;;;;;8.50;7.25;;;;;13.48;56.65;101233.81;5000798;28;45352;-54
2022/04/19 06:44:38;;;;;;;;;15.25;6.00;;;;;13.56;56.47;101229.72;5001229;28;45313;-53
2022/04/19 06:47:04;;;;;;;;;8.50;5.25;;;;;13.66;55.94;101230.84;5000449;28;45401;-52
2022/04/19 06:49:30;;;;;;;;;9.50;6.00;;;;;13.67;55.87;101229.06;4995555;28;45415;-50
2022/04/19 06:51:55;;;;;;;;;9.50;6.50;;;;;13.64;55.77;101230.09;4996370;28;45290;-54
2022/04/19 06:54:21;;;;;;;;;10.25;7.75;;;;;13.64;56.00;101224.78;5000892;28;45520;-54
2022/04/19 06:56:46;;;;;;;;;9.00;7.50;;;;;13.67;55.83;101229.06;5000480;28;45231;-53
2022/04/19 06:59:13;;;;;;;;;12.25;7.50;;;;;13.73;55.92;101225.16;4999805;28;45330;-54
2022/04/19 07:01:40;;;;;;;;;12.50;7.00;;;;;13.82;55.51;101229.84;5000708;28;45655;-55
2022/04/19 07:04:08;;;;;;;;;6.25;5.75;;;;;13.85;55.74;101222.56;5001076;28;45314;-54
2022/04/19 07:06:35;;;;;;;;;6.50;6.50;;;;;13.91;55.51;101218.69;5006593;28;46375;-54
2022/04/19 07:09:01;;;;;;;;;8.25;6.00;;;;;13.97;55.65;101218.25;4988128;28;45446;-53
2022/04/19 07:11:26;;;;;;;;;11.50;6.75;;;;;14.05;55.46;101228.34;5006856;28;45327;-50
2022/04/19 07:13:52;;;;;;;;;13.00;7.25;;;;;14.06;55.05;101230.91;5007285;28;45270;-49
2022/04/19 07:16:18;;;;;;;;;6.75;6.00;;;;;14.06;55.13;101224.75;5007015;28;45376;-51
2022/04/19 07:18:43;;;;;;;;;10.50;8.25;;;;;14.05;54.84;101226.53;5006960;28;45163;-55
2022/04/19 07:26:45;;;;;;;;;11.50;11.25;;;;;14.00;55.00;101220.72;5007110;28;45350;-52
2022/04/19 07:29:11;;;;;;;;;11.00;7.75;;;;;14.00;55.23;101222.53;5007023;28;45420;-48
2022/04/19 07:31:39;;;;;;;;;10.50;9.00;;;;;14.00;54.75;101227.81;5006803;28;45475;-54
2022/04/19 07:34:05;;;;;;;;;9.00;9.00;;;;;13.95;55.50;101221.00;5007112;28;45222;-53
2022/04/19 07:36:31;;;;;;;;;13.50;8.75;;;;;13.94;55.17;101218.47;5006738;28;45533;-53
2022/04/19 07:38:59;;;;;;;;;10.50;7.00;;;;;13.94;54.87;101221.97;5006777;28;45403;-53
2022/04/19 07:41:25;;;;;;;;;12.50;10.50;;;;;14.02;55.10;101217.97;5007109;28;45529;-53
2022/04/19 07:43:52;;;;;;;;;7.50;7.50;;;;;14.06;54.82;101217.66;5007000;28;45524;-51
2022/04/19 07:46:18;;;;;;;;;15.25;13.00;;;;;14.12;54.91;101222.53;5005533;28;45380;-53
2022/04/19 07:48:45;;;;;;;;;13.75;8.25;;;;;14.14;54.48;101225.09;5005818;28;45247;-53
2022/04/19 07:51:14;;;;;;;;;11.50;9.25;;;;;14.15;54.78;101230.31;5006297;28;45463;-51
2022/04/19 07:53:40;;;;;;;;;15.00;7.75;;;;;14.17;54.49;101222.25;5003478;28;45474;-55
2022/04/19 07:56:06;;;;;;;;;9.75;7.75;;;;;14.13;54.29;101224.22;5006183;28;45393;-54
2022/04/19 07:58:32;;;;;;;;;8.25;5.75;;;;;14.18;54.54;101218.66;5005709;28;45383;-54
2022/04/19 08:00:58;;;;;;;;;11.50;11.00;;;;;14.27;54.38;101211.88;5006746;28;45318;-51
2022/04/19 08:03:24;;;;;;;;;13.25;9.25;;;;;14.27;53.75;101212.72;5006601;28;45249;-53
2022/04/19 08:05:50;;;;;;;;;8.25;7.00;;;;;14.32;54.05;101213.28;5006254;28;45327;-53
2022/04/19 08:08:17;;;;;;;;;13.25;10.25;;;;;14.39;54.19;101209.25;5006348;28;45358;-50
2022/04/19 08:10:43;;;;;;;;;15.25;9.00;;;;;14.53;53.71;101210.97;5006570;28;45375;-51
2022/04/19 08:13:09;;;;;;;;;13.75;9.25;;;;;14.59;53.57;101215.88;5006540;28;45476;-53
2022/04/19 08:15:34;;;;;;;;;16.00;10.25;;;;;14.65;53.52;101214.63;5006200;28;46106;-53
2022/04/19 08:18:00;;;;;;;;;11.00;7.75;;;;;14.68;53.16;101206.44;5001696;28;45219;-55
2022/04/19 08:20:26;;;;;;;;;12.75;8.50;;;;;14.74;53.23;101206.88;5002678;28;45433;-51
2022/04/19 08:22:51;;;;;;;;;9.00;9.00;;;;;14.79;53.10;101204.75;5003035;28;45432;-52
2022/04/19 08:25:17;;;;;;;;;13.75;12.75;;;;;14.81;52.30;101217.91;5002972;28;46068;-52
2022/04/19 08:27:46;;;;;;;;;11.00;6.75;;;;;14.85;52.31;101215.88;5003027;28;45281;-52
2022/04/19 08:30:13;;;;;;;;;12.00;9.25;;;;;14.89;52.54;101210.25;5002400;28;45479;-53
2022/04/19 08:32:39;;;;;;;;;13.00;7.75;;;;;14.97;51.93;101215.88;5002809;28;45478;-52
2022/04/19 08:35:05;;;;;;;;;13.75;9.00;;;;;15.06;52.22;101206.41;5003246;28;45393;-53
2022/04/19 08:37:34;;;;;;;;;14.50;10.00;;;;;15.12;51.67;101207.81;4984822;28;45342;-53
2022/04/19 08:40:02;;;;;;;;;12.00;7.25;;;;;15.13;51.16;101209.50;5003014;28;45324;-49
2022/04/19 08:42:29;;;;;;;;;5.75;4.75;;;;;15.16;50.88;101207.47;5002861;28;45351;-52
2022/04/19 08:44:58;;;;;;;;;13.00;7.00;;;;;15.22;50.69;101206.19;5002491;28;46203;-52
2022/04/19 08:47:25;;;;;;;;;5.00;5.00;;;;;15.27;50.72;101206.72;5002570;28;45246;-53
2022/04/19 08:49:54;;;;;;;;;8.50;8.00;;;;;15.38;50.78;101198.81;5003006;28;45409;-52
2022/04/19 08:52:20;;;;;;;;;13.00;8.00;;;;;15.48;50.48;101199.88;5002749;28;45618;-52
2022/04/19 08:57:31;;;;;;;;;7.50;4.75;;;;;15.66;49.26;101197.72;5002979;28;45238;-52
2022/04/19 08:59:59;;;;;;;;;8.00;7.00;;;;;15.70;49.41;101193.84;5002656;28;45231;-53
2022/04/19 09:02:26;;;;;;;;;10.00;6.00;;;;;15.83;49.41;101185.84;5002848;28;45524;-53
2022/04/19 09:04:53;;;;;;;;;9.50;7.00;;;;;15.91;49.12;101186.97;5002383;28;46205;-53
2022/04/19 09:07:20;;;;;;;;;7.00;5.25;;;;;16.02;49.19;101191.47;5002589;28;45318;-51
2022/04/19 09:10:00;;;;;;;;;6.50;5.00;;;;;16.19;48.87;101184.88;5002697;28;45353;-52
2022/04/19 09:12:26;;;;;;;;;7.00;5.75;;;;;16.32;48.74;101190.13;5002692;28;45452;-50
2022/04/19 09:14:58;;;;;;;;;5.50;4.00;;;;;16.41;48.16;101184.94;5002016;28;45361;-51
2022/04/19 09:17:34;;;;;;;;;7.00;5.25;;;;;16.53;48.54;101179.66;5002606;28;45297;-49
2022/04/19 09:20:19;;;;;;;;;8.00;3.50;;;;;16.62;47.72;101178.94;4989883;28;45690;-51
2022/04/19 09:22:48;;;;;;;;;6.00;5.00;;;;;16.67;47.22;101182.94;5002625;28;45159;-50
2022/04/19 09:25:25;;;;;;;;;8.00;7.50;;;;;16.77;47.68;101180.44;5002361;28;46183;-49
2022/04/19 09:27:53;;;;;;;;;11.00;8.75;;;;;16.81;47.52;101184.53;5002274;28;45388;-54
2022/04/19 09:30:19;;;;;;;;;11.25;6.50;;;;;16.87;47.10;101192.06;5002493;28;45287;-52
2022/04/19 09:33:07;;;;;;;;;8.75;8.25;;;;;16.90;46.96;101178.50;5002134;28;45541;-54
2022/04/19 09:35:39;;;;;;;;;10.75;8.00;;;;;16.98;47.09;101170.78;5002058;28;46044;-51
2022/04/19 09:38:07;;;;;;;;;10.50;8.50;;;;;17.07;47.13;101173.69;5002287;28;45419;-53
2022/04/19 09:40:41;;;;;;;;;10.25;7.75;;;;;17.19;46.75;101178.84;5002338;28;45350;-50
2022/04/19 09:43:24;;;;;;;;;8.00;6.25;;;;;17.30;46.73;101176.19;5002139;28;45341;-52
2022/04/19 09:45:56;;;;;;;;;9.75;7.00;;;;;17.34;46.70;101174.13;5001715;28;47468;-49
2022/04/19 09:48:33;;;;;;;;;13.25;7.00;;;;;17.46;46.30;101174.94;5001954;28;45246;-52
2022/04/19 09:51:04;;;;;;;;;7.50;5.00;;;;;17.48;45.74;101165.84;5001824;28;45409;-51
2022/04/19 09:53:42;;;;;;;;;7.75;6.75;;;;;17.56;46.32;101162.56;5001635;28;45282;-53
2022/04/19 09:56:23;;;;;;;;;7.00;6.50;;;;;17.70;45.99;101164.09;5001447;28;45383;-51
2022/04/19 09:58:51;;;;;;;;;6.25;6.00;;;;;17.84;45.88;101158.50;5001646;28;45328;-49
2022/04/19 10:09:25;;;;;;;;;13.50;7.00;;;;;18.17;45.36;101135.31;5000680;28;45457;-52
2022/04/19 10:11:51;;;;;;;;;8.75;7.00;;;;;18.18;45.15;101132.53;5001462;28;45360;-53
2022/04/19 10:14:18;;;;;;;;;7.25;6.00;;;;;18.20;45.12;101130.56;5001345;28;45261;-52
2022/04/19 10:16:45;;;;;;;;;11.25;9.75;;;;;18.20;45.20;101132.41;5000772;28;46589;-51
2022/04/19 10:19:12;;;;;;;;;8.00;6.25;;;;;18.18;45.00;101131.69;5000427;28;45256;-49
2022/04/19 10:21:43;;;;;;;;;8.75;8.00;;;;;18.19;45.56;101128.03;5000616;28;45239;-53
2022/04/19 10:24:10;;;;;;;;;7.75;6.50;;;;;18.27;45.74;101125.56;5000757;28;45412;-48
2022/04/19 10:26:46;;;;;;;;;7.75;7.75;;;;;18.34;45.29;101118.72;5000589;28;46445;-53
2022/04/19 10:29:26;;;;;;;;;8.50;6.00;;;;;18.41;45.52;101117.22;5000440;28;45448;-52
2022/04/19 10:32:01;;;;;;;;;6.00;6.00;;;;;18.49;45.17;101121.91;5000210;28;45336;-51
2022/04/19 10:34:29;;;;;;;;;10.75;8.00;;;;;18.59;45.82;101117.44;4979401;28;45338;-51
2022/04/19 10:36:57;;;;;;;;;10.75;8.00;;;;;18.67;45.62;101117.66;4993230;28;46383;-50
2022/04/19 10:39:32;;;;;;;;;14.50;7.25;;;;;18.67;44.93;101118.50;4999635;28;45303;-53
2022/04/19 10:42:05;;;;;;;;;9.50;8.00;;;;;18.77;44.94;101117.69;4982922;28;45358;-51
2022/04/19 10:44:36;;;;;;;;;12.50;10.00;;;;;18.87;44.85;101118.56;5000823;28;45599;-49
2022/04/19 10:47:12;;;;;;;;;11.00;9.25;;;;;18.96;45.07;101112.44;5000027;28;45243;-52
2022/04/19 10:50:03;;;;;;;;;15.50;9.00;;;;;18.96;44.27;101115.94;5000357;28;45353;-49
2022/04/19 10:52:39;;;;;;;;;13.00;8.00;;;;;18.96;44.60;101115.94;5000612;28;45299;-53
2022/04/19 10:55:08;;;;;;;;;13.00;10.75;;;;;18.91;44.54;101114.66;5000872;28;45437;-52
2022/04/19 11:00:29;;;;;;;;;12.00;10.00;;;;;18.95;45.23;101102.72;5000861;28;45369;-49
2022/04/19 11:03:02;;;;;;;;;16.75;11.75;;;;;18.96;44.72;101110.63;5001045;28;45364;-52
2022/04/19 11:05:47;;;;;;;;;10.50;10.50;;;;;19.01;45.36;101098.66;5000675;28;45334;-50
2022/04/19 11:08:25;;;;;;;;;19.25;14.75;;;;;19.09;44.94;101099.66;5000159;28;46069;-48
2022/04/19 11:11:03;;;;;;;;;13.00;11.75;;;;;19.16;44.43;101098.13;5000422;28;45238;-50
2022/04/19 11:13:36;;;;;;;;;16.25;13.50;;;;;19.22;44.50;101096.75;4988077;28;45243;-50
2022/04/19 11:16:07;;;;;;;;;15.00;12.75;;;;;19.29;44.74;101091.72;5000831;28;45345;-51
2022/04/19 11:18:34;;;;;;;;;14.50;12.50;;;;;19.33;45.22;101091.28;5000441;28;45436;-49
2022/04/19 11:21:03;;;;;;;;;15.25;14.50;;;;;19.37;44.77;101084.69;5000494;28;46274;-54
2022/04/19 11:23:43;;;;;;;;;17.25;13.00;;;;;19.46;44.47;101080.34;5000778;28;45349;-50
2022/04/19 11:26:30;;;;;;;;;22.75;14.25;;;;;19.47;44.64;101082.84;5000493;28;45318;-54
2022/04/19 11:29:11;;;;;;;;;13.75;12.25;;;;;19.45;44.94;101081.31;4980273;28;46895;-50
2022/04/19 11:31:45;;;;;;;;;15.75;13.25;;;;;19.50;44.97;101079.03;5000449;28;45545;-49
2022/04/19 11:34:16;;;;;;;;;19.25;15.50;;;;;19.59;44.84;101082.75;5000683;28;45389;-49
2022/04/19 11:36:44;;;;;;;;;12.75;12.75;;;;;19.62;44.21;101083.31;5000451;28;45609;-51
2022/04/19 11:46:44;;;;;;;;;11.75;11.75;;;;;19.66;44.06;101082.03;5000181;28;45243;-49
2022/04/19 11:47:45;;;;;;;;;12.25;12.25;;;;;19.77;43.98;101065.88;5000764;28;45350;-49
2022/04/19 11:50:29;;;;;;;;;14.75;12.00;;;;;19.87;43.77;101073.03;4999926;28;46153;-52
2022/04/19 11:52:55;;;;;;;;;16.75;13.50;;;;;19.83;43.63;101077.81;5002640;28;45297;-52
2022/04/19 11:55:24;;;;;;;;;14.00;10.75;;;;;19.86;43.51;101071.34;5003679;28;45383;-52
2022/04/19 11:58:02;;;;;;;;;14.75;11.25;;;;;20.02;43.18;101068.91;5003719;28;45361;-50
2022/04/19 12:00:28;;;;;;;;;15.00;10.50;;;;;20.08;43.09;101074.53;5003591;28;45259;-49
2022/04/19 12:02:53;;;;;;;;;16.50;13.00;;;;;20.13;43.44;101075.91;5003685;28;45207;-52